Time,TemperatureF,DewpointF,PressureIn,WindDirection,WindDirectionDegrees,WindSpeedMPH,WindSpeedGustMPH,Humidity,HourlyPrecipIn,Conditions,Clouds,dailyrainin,SoftwareType,DateUTC
2013-05-28 00:01:00,75.9,84.5,30.11,East,90,8.9,10.7,81,0.00,,,0.00,,2013-05-28 04:01:00,
2013-05-28 00:06:00,76.0,84.2,30.11,East,90,13.9,17.0,80,0.00,,,0.00,,2013-05-28 04:06:00,
2013-05-28 00:11:00,76.0,84.2,30.11,East,90,8.7,16.6,80,0.00,,,0.00,,2013-05-28 04:11:00,
2013-05-28 00:16:00,76.0,84.2,30.11,ESE,112,12.8,16.8,79,0.00,,,0.00,,2013-05-28 04:16:00,
2013-05-28 00:21:00,76.1,84.2,30.11,ESE,112,13.4,18.8,79,0.00,,,0.00,,2013-05-28 04:21:00,
2013-05-28 00:26:00,76.2,84.3,30.10,East,90,6.0,17.4,79,0.00,,,0.00,,2013-05-28 04:26:00,
2013-05-28 00:31:00,76.0,84.1,30.10,East,90,14.5,14.5,76,0.00,,,0.00,,2013-05-28 04:31:00,
2013-05-28 00:36:00,76.1,84.2,30.10,East,90,11.2,16.3,76,0.00,,,0.00,,2013-05-28 04:36:00,
2013-05-28 00:41:00,76.1,84.1,30.10,ESE,112,7.8,15.2,76,0.00,,,0.00,,2013-05-28 04:41:00,
2013-05-28 00:46:00,76.1,84.1,30.11,East,90,20.4,24.8,76,0.00,,,0.00,,2013-05-28 04:46:00,
2013-05-28 00:51:00,76.2,84.2,30.11,East,90,10.3,13.0,77,0.00,,,0.00,,2013-05-28 04:51:00,
2013-05-28 00:56:00,76.2,84.1,30.10,East,90,9.2,15.0,78,0.00,,,0.00,,2013-05-28 04:56:00,
2013-05-28 01:01:00,76.1,84.1,30.10,ENE,67,6.0,7.4,78,0.00,,,0.00,,2013-05-28 05:01:00,
2013-05-28 01:06:00,76.2,84.1,30.10,East,90,12.8,12.8,78,0.00,,,0.00,,2013-05-28 05:06:00,
2013-05-28 01:11:00,76.1,84.1,30.10,East,90,5.1,12.5,78,0.00,,,0.00,,2013-05-28 05:11:00,
2013-05-28 01:16:00,76.1,84.1,30.10,East,90,9.6,15.0,78,0.00,,,0.00,,2013-05-28 05:16:00,
2013-05-28 01:21:00,76.2,84.1,30.10,East,90,11.9,16.8,78,0.00,,,0.00,,2013-05-28 05:21:00,
2013-05-28 01:26:00,76.1,84.0,30.10,ESE,112,11.2,20.6,77,0.00,,,0.00,,2013-05-28 05:26:00,
2013-05-28 01:31:00,76.2,84.1,30.10,ENE,67,7.6,8.9,78,0.00,,,0.00,,2013-05-28 05:31:00,
2013-05-28 01:36:00,76.1,84.1,30.10,East,90,10.5,15.0,77,0.00,,,0.00,,2013-05-28 05:36:00,
2013-05-28 01:41:00,76.1,84.1,30.10,ESE,112,11.4,16.8,78,0.00,,,0.00,,2013-05-28 05:41:00,
2013-05-28 01:46:00,76.0,84.0,30.10,ESE,112,18.3,19.0,77,0.00,,,0.00,,2013-05-28 05:46:00,
2013-05-28 01:51:00,76.2,84.0,30.09,East,90,8.3,13.6,77,0.00,,,0.00,,2013-05-28 05:51:00,
2013-05-28 01:56:00,76.1,84.0,30.09,East,90,13.6,19.0,77,0.00,,,0.00,,2013-05-28 05:56:00,
2013-05-28 02:01:00,76.2,84.1,30.09,SE,135,9.2,15.4,77,0.00,,,0.00,,2013-05-28 06:01:00,
2013-05-28 02:06:00,76.1,83.8,30.08,ESE,112,12.5,16.6,76,0.00,,,0.00,,2013-05-28 06:06:00,
2013-05-28 02:11:00,76.1,84.0,30.09,ENE,67,5.8,19.7,77,0.00,,,0.00,,2013-05-28 06:11:00,
2013-05-28 02:16:00,76.0,83.9,30.08,ESE,112,8.7,14.1,76,0.00,,,0.00,,2013-05-28 06:16:00,
2013-05-28 02:21:00,76.1,84.0,30.08,ESE,112,6.7,10.7,77,0.00,,,0.00,,2013-05-28 06:21:00,
2013-05-28 02:26:00,76.2,83.9,30.08,East,90,7.8,10.7,77,0.00,,,0.00,,2013-05-28 06:26:00,
2013-05-28 02:31:00,76.3,84.1,30.08,East,90,8.1,13.4,78,0.00,,,0.00,,2013-05-28 06:31:00,
2013-05-28 02:36:00,76.2,84.0,30.08,East,90,15.7,17.9,77,0.00,,,0.00,,2013-05-28 06:36:00,
2013-05-28 02:41:00,76.1,83.9,30.08,ESE,112,15.2,17.9,77,0.00,,,0.00,,2013-05-28 06:41:00,
2013-05-28 02:46:00,76.2,83.9,30.07,ESE,112,6.5,14.1,77,0.00,,,0.00,,2013-05-28 06:46:00,
2013-05-28 02:51:00,76.3,84.0,30.07,ENE,67,15.0,15.0,78,0.00,,,0.00,,2013-05-28 06:51:00,
2013-05-28 02:56:00,76.3,84.1,30.07,ESE,112,9.6,14.8,78,0.00,,,0.00,,2013-05-28 06:56:00,
2013-05-28 03:01:00,76.1,83.9,30.06,ENE,67,6.9,13.6,78,0.00,,,0.00,,2013-05-28 07:01:00,
2013-05-28 03:06:00,76.2,83.9,30.06,ENE,67,2.2,5.4,78,0.00,,,0.00,,2013-05-28 07:06:00,
2013-05-28 03:11:00,76.2,84.0,30.06,NNE,22,5.6,13.6,79,0.00,,,0.00,,2013-05-28 07:11:00,
2013-05-28 03:16:00,76.2,83.9,30.06,East,90,5.6,6.9,79,0.00,,,0.00,,2013-05-28 07:16:00,
2013-05-28 03:21:00,76.2,83.9,30.06,ENE,67,10.7,17.7,79,0.00,,,0.00,,2013-05-28 07:21:00,
2013-05-28 03:26:00,76.2,83.9,30.06,East,90,19.0,19.0,79,0.00,,,0.00,,2013-05-28 07:26:00,
2013-05-28 03:31:00,76.2,83.9,30.06,ESE,112,15.7,17.4,79,0.00,,,0.00,,2013-05-28 07:31:00,
2013-05-28 03:36:00,76.3,83.9,30.06,East,90,7.8,9.8,79,0.00,,,0.00,,2013-05-28 07:36:00,
2013-05-28 03:41:00,76.1,83.8,30.06,ESE,112,9.6,16.8,80,0.00,,,0.00,,2013-05-28 07:41:00,
2013-05-28 03:46:00,76.2,83.9,30.05,East,90,11.0,11.0,79,0.00,,,0.00,,2013-05-28 07:46:00,
2013-05-28 03:51:00,76.2,83.8,30.05,East,90,11.0,19.0,79,0.00,,,0.00,,2013-05-28 07:51:00,
2013-05-28 03:56:00,76.2,83.7,30.05,ESE,112,12.3,12.5,79,0.00,,,0.00,,2013-05-28 07:56:00,
2013-05-28 04:01:00,76.0,83.8,30.06,East,90,11.0,17.4,79,0.00,,,0.00,,2013-05-28 08:01:00,
2013-05-28 04:06:00,76.3,83.7,30.05,ENE,67,6.5,10.5,79,0.00,,,0.00,,2013-05-28 08:06:00,
2013-05-28 04:11:00,76.1,83.7,30.05,East,90,13.4,19.9,79,0.00,,,0.00,,2013-05-28 08:11:00,
2013-05-28 04:16:00,76.2,83.7,30.05,East,90,9.8,11.6,79,0.00,,,0.00,,2013-05-28 08:16:00,
2013-05-28 04:21:00,76.3,83.7,30.05,ESE,112,11.2,14.8,79,0.00,,,0.00,,2013-05-28 08:21:00,
2013-05-28 04:26:00,76.2,83.6,30.05,ENE,67,4.0,18.6,79,0.00,,,0.00,,2013-05-28 08:26:00,
2013-05-28 04:31:00,76.1,83.6,30.05,ENE,67,15.7,15.7,79,0.00,,,0.00,,2013-05-28 08:31:00,
2013-05-28 04:36:00,76.2,83.6,30.04,ESE,112,10.5,21.9,78,0.00,,,0.00,,2013-05-28 08:36:00,
2013-05-28 04:41:00,76.1,83.6,30.04,ESE,112,15.0,21.3,79,0.00,,,0.00,,2013-05-28 08:41:00,
2013-05-28 04:46:00,76.3,83.7,30.04,ESE,112,11.2,14.1,79,0.00,,,0.00,,2013-05-28 08:46:00,
2013-05-28 04:51:00,76.2,83.6,30.04,East,90,9.4,13.6,79,0.00,,,0.00,,2013-05-28 08:51:00,
2013-05-28 04:56:00,76.3,83.7,30.04,NE,45,10.5,14.5,79,0.00,,,0.00,,2013-05-28 08:56:00,
2013-05-28 05:02:00,76.1,83.6,30.05,East,90,11.0,12.8,79,0.00,,,0.00,,2013-05-28 09:02:00,
2013-05-28 05:07:00,76.2,83.5,30.05,ESE,112,10.1,18.3,79,0.00,,,0.00,,2013-05-28 09:07:00,
2013-05-28 05:12:00,76.2,83.7,30.05,SE,135,8.5,9.8,79,0.00,,,0.00,,2013-05-28 09:12:00,
2013-05-28 05:17:00,76.1,83.6,30.04,ESE,112,22.8,22.8,79,0.00,,,0.00,,2013-05-28 09:17:00,
2013-05-28 05:22:00,76.2,83.5,30.04,East,90,10.5,14.3,79,0.00,,,0.00,,2013-05-28 09:22:00,
2013-05-28 05:27:00,76.2,83.5,30.05,East,90,16.8,17.7,80,0.00,,,0.00,,2013-05-28 09:27:00,
2013-05-28 05:32:00,76.2,83.6,30.05,East,90,5.6,8.7,80,0.00,,,0.00,,2013-05-28 09:32:00,
2013-05-28 05:37:00,76.1,83.6,30.05,East,90,8.7,19.2,80,0.00,,,0.00,,2013-05-28 09:37:00,
2013-05-28 05:42:00,76.3,83.7,30.04,ENE,67,10.1,10.1,80,0.00,,,0.00,,2013-05-28 09:42:00,
2013-05-28 05:47:00,76.1,83.5,30.04,East,90,9.8,15.0,80,0.00,,,0.00,,2013-05-28 09:47:00,
2013-05-28 05:52:00,76.1,83.5,30.05,ESE,112,9.8,11.0,80,0.00,,,0.00,,2013-05-28 09:52:00,
2013-05-28 05:57:00,76.2,83.4,30.05,ESE,112,9.8,18.6,80,0.00,,,0.00,,2013-05-28 09:57:00,
2013-05-28 06:02:00,76.2,83.5,30.04,East,90,19.0,19.9,80,0.00,,,0.00,,2013-05-28 10:02:00,
2013-05-28 06:07:00,76.2,83.5,30.05,East,90,7.4,17.7,80,0.00,,,0.00,,2013-05-28 10:07:00,
2013-05-28 06:12:00,76.2,83.4,30.05,ESE,112,15.9,15.9,81,0.00,,,0.00,,2013-05-28 10:12:00,
2013-05-28 06:17:00,76.2,83.5,30.05,East,90,13.2,19.2,80,0.00,,,0.00,,2013-05-28 10:17:00,
2013-05-28 06:22:00,76.1,83.6,30.05,NE,45,13.4,16.8,80,0.00,,,0.00,,2013-05-28 10:22:00,
2013-05-28 06:27:00,76.3,83.6,30.06,East,90,9.6,15.7,80,0.00,,,0.00,,2013-05-28 10:27:00,
2013-05-28 06:32:00,76.2,83.6,30.06,ESE,112,14.8,16.1,80,0.00,,,0.00,,2013-05-28 10:32:00,
2013-05-28 06:37:00,76.1,83.4,30.06,ESE,112,15.7,23.3,80,0.00,,,0.00,,2013-05-28 10:37:00,
2013-05-28 06:42:00,76.2,83.4,30.06,ESE,112,15.4,16.6,80,0.00,,,0.00,,2013-05-28 10:42:00,
2013-05-28 06:47:00,76.2,83.4,30.06,ESE,112,13.6,17.0,80,0.00,,,0.00,,2013-05-28 10:47:00,
2013-05-28 06:52:00,76.2,83.6,30.07,ESE,112,13.4,14.1,80,0.00,,,0.00,,2013-05-28 10:52:00,
2013-05-28 06:57:00,76.3,83.5,30.07,East,90,11.4,15.9,80,0.00,,,0.00,,2013-05-28 10:57:00,
2013-05-28 07:02:00,76.3,83.4,30.07,East,90,10.3,19.2,80,0.00,,,0.00,,2013-05-28 11:02:00,
2013-05-28 07:07:00,76.3,83.4,30.07,SE,135,10.7,17.2,80,0.00,,,0.00,,2013-05-28 11:07:00,
2013-05-28 07:12:00,76.6,83.5,30.07,NE,45,4.7,13.0,81,0.00,,,0.00,,2013-05-28 11:12:00,
2013-05-28 07:17:00,76.6,83.5,30.07,ESE,112,8.5,13.6,80,0.00,,,0.00,,2013-05-28 11:17:00,
2013-05-28 07:22:00,76.7,83.4,30.07,East,90,11.4,13.6,80,0.00,,,0.00,,2013-05-28 11:22:00,
2013-05-28 07:27:00,76.7,83.4,30.07,ESE,112,13.0,15.0,79,0.00,,,0.00,,2013-05-28 11:27:00,
2013-05-28 07:32:00,77.0,83.4,30.07,East,90,9.8,16.6,79,0.00,,,0.00,,2013-05-28 11:32:00,
2013-05-28 07:37:00,77.1,83.6,30.07,East,90,8.9,10.3,79,0.00,,,0.00,,2013-05-28 11:37:00,
2013-05-28 07:42:00,77.1,83.5,30.07,ESE,112,12.5,20.8,79,0.00,,,0.00,,2013-05-28 11:42:00,
2013-05-28 07:47:00,77.1,83.4,30.07,East,90,8.9,13.0,79,0.00,,,0.00,,2013-05-28 11:47:00,
2013-05-28 07:52:00,77.4,83.5,30.07,East,90,15.4,20.8,78,0.00,,,0.00,,2013-05-28 11:52:00,
2013-05-28 07:57:00,77.5,83.3,30.07,East,90,18.8,21.7,78,0.00,,,0.00,,2013-05-28 11:57:00,
2013-05-28 08:02:00,77.7,83.3,30.07,SE,135,10.3,16.6,78,0.00,,,0.00,,2013-05-28 12:02:00,
2013-05-28 08:07:00,77.8,83.5,30.07,East,90,14.3,19.5,76,0.00,,,0.00,,2013-05-28 12:07:00,
2013-05-28 08:12:00,78.0,83.4,30.07,East,90,18.1,22.8,76,0.00,,,0.00,,2013-05-28 12:12:00,
2013-05-28 08:17:00,78.1,83.4,30.07,East,90,11.6,11.6,76,0.00,,,0.00,,2013-05-28 12:17:00,
2013-05-28 08:22:00,78.2,83.4,30.08,East,90,8.9,18.1,75,0.00,,,0.00,,2013-05-28 12:22:00,
2013-05-28 08:27:00,78.1,83.5,30.08,East,90,13.4,20.1,76,0.00,,,0.00,,2013-05-28 12:27:00,
2013-05-28 08:32:00,78.1,83.5,30.08,ESE,112,14.3,21.9,75,0.00,,,0.00,,2013-05-28 12:32:00,
2013-05-28 08:37:00,78.2,83.6,30.08,East,90,13.9,23.9,76,0.00,,,0.00,,2013-05-28 12:37:00,
2013-05-28 08:42:00,78.4,83.5,30.08,East,90,18.8,20.1,75,0.00,,,0.00,,2013-05-28 12:42:00,
2013-05-28 08:47:00,78.5,83.5,30.09,East,90,16.8,19.2,75,0.00,,,0.00,,2013-05-28 12:47:00,
2013-05-28 08:52:00,78.5,83.5,30.09,ENE,67,18.6,24.6,75,0.00,,,0.00,,2013-05-28 12:52:00,
2013-05-28 08:57:00,78.5,83.5,30.09,ESE,112,7.6,19.7,76,0.00,,,0.00,,2013-05-28 12:57:00,
2013-05-28 09:02:00,78.6,83.5,30.09,East,90,12.8,17.7,76,0.00,,,0.00,,2013-05-28 13:02:00,
2013-05-28 09:07:00,78.4,83.5,30.09,ESE,112,20.1,22.8,75,0.00,,,0.00,,2013-05-28 13:07:00,
2013-05-28 09:12:00,78.4,83.4,30.09,ESE,112,19.9,25.5,75,0.00,,,0.00,,2013-05-28 13:12:00,
2013-05-28 09:17:00,78.2,83.5,30.10,SE,135,23.5,23.5,76,0.00,,,0.00,,2013-05-28 13:17:00,
2013-05-28 09:22:00,78.1,83.4,30.09,ESE,112,18.3,23.3,76,0.00,,,0.00,,2013-05-28 13:22:00,
2013-05-28 09:27:00,77.7,83.6,30.10,East,90,12.1,20.6,77,0.00,,,0.00,,2013-05-28 13:27:00,
2013-05-28 09:32:00,77.7,83.6,30.10,East,90,17.0,21.3,78,0.00,,,0.00,,2013-05-28 13:32:00,
2013-05-28 09:37:00,77.9,83.6,30.10,ESE,112,12.3,18.3,79,0.00,,,0.00,,2013-05-28 13:37:00,
2013-05-28 09:42:00,78.0,83.7,30.09,East,90,10.5,13.6,79,0.00,,,0.00,,2013-05-28 13:42:00,
2013-05-28 09:47:00,78.0,83.4,30.09,East,90,15.4,18.6,79,0.00,,,0.00,,2013-05-28 13:47:00,
2013-05-28 09:52:00,78.3,83.6,30.09,ESE,112,13.0,13.0,79,0.00,,,0.00,,2013-05-28 13:52:00,
2013-05-28 09:57:00,78.4,83.3,30.09,East,90,16.6,20.6,77,0.00,,,0.00,,2013-05-28 13:57:00,
2013-05-28 10:02:00,78.5,83.6,30.09,ESE,112,9.8,12.5,78,0.00,,,0.00,,2013-05-28 14:02:00,
2013-05-28 10:07:00,78.5,83.6,30.09,ESE,112,20.6,25.1,74,0.00,,,0.00,,2013-05-28 14:07:00,
2013-05-28 10:12:00,78.4,83.5,30.09,ESE,112,24.2,25.9,73,0.00,,,0.00,,2013-05-28 14:12:00,
2013-05-28 10:17:00,78.4,83.5,30.09,ESE,112,21.9,30.9,74,0.00,,,0.00,,2013-05-28 14:17:00,
2013-05-28 10:22:00,78.6,83.6,30.09,East,90,7.2,7.2,75,0.00,,,0.00,,2013-05-28 14:22:00,
2013-05-28 10:27:00,78.7,83.4,30.09,SE,135,18.6,18.6,75,0.00,,,0.00,,2013-05-28 14:27:00,
2013-05-28 10:33:00,78.5,83.4,30.10,ESE,112,24.2,30.4,75,0.00,,,0.00,,2013-05-28 14:33:00,
2013-05-28 10:38:00,77.9,83.4,30.10,ESE,112,17.4,27.7,73,0.00,,,0.00,,2013-05-28 14:38:00,
2013-05-28 10:43:00,77.0,83.3,30.10,ESE,112,23.5,29.8,73,0.00,,,0.00,,2013-05-28 14:43:00,
2013-05-28 10:48:00,76.7,83.5,30.10,SE,135,15.2,17.0,76,0.00,,,0.00,,2013-05-28 14:48:00,
2013-05-28 10:53:00,76.5,83.3,30.10,SSE,157,18.3,27.7,74,0.00,,,0.00,,2013-05-28 14:53:00,
2013-05-28 10:58:00,76.6,83.3,30.10,SE,135,15.7,19.2,75,0.00,,,0.00,,2013-05-28 14:58:00,
2013-05-28 11:03:00,76.4,83.2,30.10,SE,135,20.6,27.5,77,0.00,,,0.00,,2013-05-28 15:03:00,
2013-05-28 11:08:00,76.1,83.2,30.10,SSE,157,12.3,17.4,79,0.00,,,0.00,,2013-05-28 15:08:00,
2013-05-28 11:13:00,75.9,83.3,30.10,SE,135,13.6,23.9,80,0.00,,,0.00,,2013-05-28 15:13:00,
2013-05-28 11:18:00,75.8,83.4,30.10,ESE,112,15.4,23.0,79,0.00,,,0.00,,2013-05-28 15:18:00,
2013-05-28 11:23:00,76.1,83.2,30.09,SSE,157,8.7,22.6,79,0.00,,,0.00,,2013-05-28 15:23:00,
2013-05-28 11:28:00,76.2,83.2,30.10,ESE,112,21.5,21.5,79,0.00,,,0.00,,2013-05-28 15:28:00,
2013-05-28 11:33:00,76.2,83.2,30.10,SE,135,17.2,19.5,78,0.00,,,0.00,,2013-05-28 15:33:00,
2013-05-28 11:38:00,76.4,83.4,30.09,SE,135,14.3,19.2,78,0.00,,,0.00,,2013-05-28 15:38:00,
2013-05-28 11:43:00,76.6,83.4,30.09,SE,135,17.0,23.5,74,0.00,,,0.00,,2013-05-28 15:43:00,
2013-05-28 11:48:00,76.7,83.5,30.09,ESE,112,17.0,18.1,74,0.00,,,0.00,,2013-05-28 15:48:00,
2013-05-28 11:53:00,77.0,83.3,30.09,SE,135,20.4,24.8,74,0.00,,,0.00,,2013-05-28 15:53:00,
2013-05-28 11:58:00,77.3,83.4,30.09,SE,135,15.7,21.9,74,0.00,,,0.00,,2013-05-28 15:58:00,
2013-05-28 12:03:00,77.5,83.5,30.10,SE,135,10.7,18.8,75,0.00,,,0.00,,2013-05-28 16:03:00,
2013-05-28 12:08:00,77.7,83.4,30.09,SE,135,15.2,22.8,74,0.00,,,0.00,,2013-05-28 16:08:00,
2013-05-28 12:13:00,78.0,83.5,30.09,ESE,112,14.1,21.7,75,0.00,,,0.00,,2013-05-28 16:13:00,
2013-05-28 12:18:00,78.0,83.6,30.09,ESE,112,13.9,16.8,74,0.00,,,0.00,,2013-05-28 16:18:00,
2013-05-28 12:23:00,77.9,83.5,30.09,ESE,112,17.2,23.3,74,0.00,,,0.00,,2013-05-28 16:23:00,
2013-05-28 12:28:00,77.9,83.7,30.09,SE,135,16.1,20.1,75,0.00,,,0.00,,2013-05-28 16:28:00,
2013-05-28 12:33:00,77.9,83.6,30.09,ESE,112,14.3,22.6,73,0.00,,,0.00,,2013-05-28 16:33:00,
2013-05-28 12:38:00,78.0,83.5,30.09,SE,135,14.5,14.5,74,0.00,,,0.00,,2013-05-28 16:38:00,
2013-05-28 12:43:00,78.2,83.6,30.09,SE,135,13.6,17.2,74,0.00,,,0.00,,2013-05-28 16:43:00,
2013-05-28 12:48:00,78.4,83.9,30.09,East,90,10.5,13.9,74,0.00,,,0.00,,2013-05-28 16:48:00,
2013-05-28 12:53:00,78.9,83.8,30.09,ESE,112,11.2,13.9,72,0.00,,,0.00,,2013-05-28 16:53:00,
2013-05-28 12:58:00,79.0,83.8,30.09,ESE,112,15.4,15.4,71,0.00,,,0.00,,2013-05-28 16:58:00,
2013-05-28 13:03:00,79.1,84.0,30.09,ESE,112,12.5,17.2,71,0.00,,,0.00,,2013-05-28 17:03:00,
2013-05-28 13:08:00,79.1,84.0,30.09,ESE,112,19.2,21.9,70,0.00,,,0.00,,2013-05-28 17:08:00,
2013-05-28 13:13:00,79.0,83.8,30.09,SE,135,21.7,22.1,71,0.00,,,0.00,,2013-05-28 17:13:00,
2013-05-28 13:18:00,78.8,83.9,30.09,East,90,14.1,21.3,71,0.00,,,0.00,,2013-05-28 17:18:00,
2013-05-28 13:23:00,79.1,84.0,30.09,ESE,112,13.9,18.8,69,0.00,,,0.00,,2013-05-28 17:23:00,
2013-05-28 13:28:00,78.9,84.0,30.09,ESE,112,15.2,25.5,69,0.00,,,0.00,,2013-05-28 17:28:00,
2013-05-28 13:33:00,79.2,84.1,30.09,ESE,112,17.2,17.9,70,0.00,,,0.00,,2013-05-28 17:33:00,
2013-05-28 13:38:00,79.4,84.4,30.09,ESE,112,13.9,19.0,69,0.00,,,0.00,,2013-05-28 17:38:00,
2013-05-28 13:43:00,79.7,84.4,30.09,ESE,112,14.8,18.6,69,0.00,,,0.00,,2013-05-28 17:43:00,
2013-05-28 13:48:00,79.3,84.2,30.09,ESE,112,21.5,28.4,69,0.00,,,0.00,,2013-05-28 17:48:00,
2013-05-28 13:53:00,79.1,84.2,30.09,SE,135,17.0,17.4,70,0.00,,,0.00,,2013-05-28 17:53:00,
2013-05-28 14:07:00,78.8,84.1,30.09,ESE,112,12.8,12.8,72,0.00,,,0.00,,2013-05-28 18:07:00,
2013-05-28 14:12:00,79.0,84.1,30.08,ESE,112,8.7,14.8,73,0.00,,,0.00,,2013-05-28 18:12:00,
2013-05-28 14:17:00,79.0,84.1,30.08,ESE,112,12.8,19.0,72,0.00,,,0.00,,2013-05-28 18:17:00,
2013-05-28 14:22:00,79.0,84.2,30.08,SE,135,18.3,20.6,72,0.00,,,0.00,,2013-05-28 18:22:00,
2013-05-28 14:27:00,79.1,84.1,30.08,ESE,112,7.6,15.9,73,0.00,,,0.00,,2013-05-28 18:27:00,
2013-05-28 14:32:00,79.1,84.1,30.08,SE,135,13.6,21.3,72,0.00,,,0.00,,2013-05-28 18:32:00,
2013-05-28 14:37:00,78.9,84.0,30.08,ESE,112,16.6,26.2,72,0.00,,,0.00,,2013-05-28 18:37:00,
2013-05-28 14:42:00,79.2,84.0,30.08,SE,135,15.9,19.9,72,0.00,,,0.00,,2013-05-28 18:42:00,
2013-05-28 14:47:00,79.1,84.1,30.08,SE,135,12.1,19.7,72,0.00,,,0.00,,2013-05-28 18:47:00,
2013-05-28 14:52:00,79.3,84.2,30.07,SSE,157,11.9,19.0,70,0.00,,,0.00,,2013-05-28 18:52:00,
2013-05-28 14:57:00,79.8,84.1,30.07,SE,135,16.3,17.4,70,0.00,,,0.00,,2013-05-28 18:57:00,
2013-05-28 15:02:00,79.7,84.2,30.07,SE,135,11.6,20.8,69,0.00,,,0.00,,2013-05-28 19:02:00,
2013-05-28 15:07:00,79.6,84.3,30.07,ESE,112,10.3,23.5,67,0.00,,,0.00,,2013-05-28 19:07:00,
2013-05-28 15:12:00,79.9,84.4,30.07,SE,135,19.9,22.4,65,0.00,,,0.00,,2013-05-28 19:12:00,
2013-05-28 15:17:00,79.9,84.4,30.07,SE,135,20.8,24.8,67,0.00,,,0.00,,2013-05-28 19:17:00,
2013-05-28 15:22:00,80.2,84.5,30.07,ESE,112,8.5,8.5,69,0.00,,,0.00,,2013-05-28 19:22:00,
2013-05-28 15:27:00,80.2,84.4,30.07,SE,135,14.5,18.3,66,0.00,,,0.00,,2013-05-28 19:27:00,
2013-05-28 15:32:00,80.1,84.7,30.06,ESE,112,14.1,17.7,68,0.00,,,0.00,,2013-05-28 19:32:00,
2013-05-28 15:37:00,80.1,84.5,30.06,ESE,112,20.6,22.4,68,0.00,,,0.00,,2013-05-28 19:37:00,
2013-05-28 15:42:00,79.9,84.4,30.06,ESE,112,13.4,13.4,69,0.00,,,0.00,,2013-05-28 19:42:00,
2013-05-28 15:47:00,79.5,84.5,30.06,ENE,67,14.1,23.7,69,0.00,,,0.00,,2013-05-28 19:47:00,
2013-05-28 15:52:00,79.2,84.5,30.06,ESE,112,24.6,27.7,69,0.00,,,0.00,,2013-05-28 19:52:00,
2013-05-28 15:57:00,79.4,84.6,30.06,ESE,112,13.9,19.5,69,0.00,,,0.00,,2013-05-28 19:57:00,
2013-05-28 16:02:00,79.4,84.2,30.06,ESE,112,14.5,20.4,70,0.00,,,0.00,,2013-05-28 20:02:00,
2013-05-28 16:07:00,79.5,84.3,30.06,ESE,112,21.9,21.9,69,0.00,,,0.00,,2013-05-28 20:07:00,
2013-05-28 16:12:00,79.8,84.6,30.06,ESE,112,15.0,15.0,71,0.00,,,0.00,,2013-05-28 20:12:00,
2013-05-28 16:17:00,80.1,84.5,30.06,East,90,6.9,11.2,72,0.00,,,0.00,,2013-05-28 20:17:00,
2013-05-28 16:22:00,80.0,84.5,30.05,SE,135,14.8,18.8,69,0.00,,,0.00,,2013-05-28 20:22:00,
2013-05-28 16:27:00,80.0,84.5,30.05,ESE,112,10.1,18.1,71,0.00,,,0.00,,2013-05-28 20:27:00,
2013-05-28 16:32:00,79.8,84.6,30.05,ESE,112,12.8,22.6,70,0.00,,,0.00,,2013-05-28 20:32:00,
2013-05-28 16:37:00,79.8,84.7,30.05,ESE,112,14.1,21.7,71,0.00,,,0.00,,2013-05-28 20:37:00,
2013-05-28 16:42:00,79.5,84.5,30.05,ESE,112,13.9,19.5,71,0.00,,,0.00,,2013-05-28 20:42:00,
2013-05-28 16:47:00,79.8,84.4,30.04,ENE,67,7.4,12.1,71,0.00,,,0.00,,2013-05-28 20:47:00,
2013-05-28 16:52:00,79.7,84.2,30.05,ESE,112,6.9,14.1,73,0.00,,,0.00,,2013-05-28 20:52:00,
2013-05-28 16:57:00,79.5,84.4,30.05,East,90,7.4,21.7,72,0.00,,,0.00,,2013-05-28 20:57:00,
2013-05-28 17:02:00,78.6,84.2,30.06,SE,135,20.4,36.0,72,0.00,,,0.00,,2013-05-28 21:02:00,
2013-05-28 17:07:00,76.4,84.1,30.06,SE,135,23.3,32.2,76,0.00,,,0.00,,2013-05-28 21:07:00,
2013-05-28 17:12:00,75.5,84.1,30.06,SE,135,14.3,21.7,79,0.00,,,0.00,,2013-05-28 21:12:00,
2013-05-28 17:17:00,74.5,83.9,30.06,SE,135,25.3,25.3,80,0.00,,,0.00,,2013-05-28 21:17:00,
2013-05-28 17:22:00,73.9,83.9,30.06,SSE,157,11.9,21.0,82,0.00,,,0.00,,2013-05-28 21:22:00,
2013-05-28 17:27:00,73.6,84.1,30.06,ESE,112,9.4,12.8,84,0.00,,,0.00,,2013-05-28 21:27:00,
2013-05-28 17:32:00,73.6,84.0,30.06,ESE,112,9.8,12.3,85,0.00,,,0.00,,2013-05-28 21:32:00,
2013-05-28 17:37:00,73.7,84.1,30.06,East,90,13.2,14.1,85,0.00,,,0.00,,2013-05-28 21:37:00,
2013-05-28 17:42:00,73.8,84.1,30.06,ESE,112,5.4,10.7,85,0.00,,,0.00,,2013-05-28 21:42:00,
2013-05-28 17:47:00,74.0,84.1,30.06,ESE,112,6.9,15.2,85,0.00,,,0.00,,2013-05-28 21:47:00,
2013-05-28 17:52:00,74.3,84.1,30.06,SE,135,4.5,9.4,84,0.00,,,0.00,,2013-05-28 21:52:00,
2013-05-28 17:57:00,74.4,83.9,30.05,ESE,112,9.2,9.4,84,0.00,,,0.00,,2013-05-28 21:57:00,
2013-05-28 18:02:00,74.6,84.0,30.05,SE,135,9.2,9.2,85,0.00,,,0.00,,2013-05-28 22:02:00,
2013-05-28 18:07:00,74.7,84.0,30.06,SE,135,4.7,6.7,85,0.00,,,0.00,,2013-05-28 22:07:00,
2013-05-28 18:12:00,75.0,84.1,30.06,ESE,112,3.8,4.9,84,0.00,,,0.00,,2013-05-28 22:12:00,
2013-05-28 18:17:00,75.2,83.8,30.06,NE,45,2.9,4.0,84,0.00,,,0.00,,2013-05-28 22:17:00,
2013-05-28 18:22:00,75.3,83.9,30.05,NE,45,3.1,3.6,84,0.00,,,0.00,,2013-05-28 22:22:00,
2013-05-28 18:27:00,75.5,83.6,30.05,ENE,67,6.5,11.0,84,0.00,,,0.00,,2013-05-28 22:27:00,
2013-05-28 18:32:00,75.5,84.1,30.05,NNE,22,2.9,3.8,84,0.00,,,0.00,,2013-05-28 22:32:00,
2013-05-28 18:37:00,75.5,83.8,30.05,NE,45,1.6,2.5,83,0.00,,,0.00,,2013-05-28 22:37:00,
2013-05-28 18:43:00,75.5,83.7,30.05,East,90,0.0,2.2,83,0.00,,,0.00,,2013-05-28 22:43:00,
2013-05-28 18:48:00,75.5,84.0,30.05,ENE,67,0.0,0.0,83,0.00,,,0.00,,2013-05-28 22:48:00,
2013-05-28 18:53:00,75.5,84.1,30.05,ENE,67,4.3,11.0,83,0.00,,,0.00,,2013-05-28 22:53:00,
2013-05-28 18:58:00,75.5,83.6,30.05,East,90,6.0,10.3,82,0.00,,,0.00,,2013-05-28 22:58:00,
2013-05-28 19:03:00,75.6,84.0,30.05,ESE,112,3.8,4.0,82,0.00,,,0.00,,2013-05-28 23:03:00,
2013-05-28 19:08:00,75.4,83.5,30.06,ESE,112,6.9,11.2,82,0.00,,,0.00,,2013-05-28 23:08:00,
2013-05-28 19:13:00,75.5,84.1,30.06,ESE,112,6.9,12.3,82,0.00,,,0.00,,2013-05-28 23:13:00,
2013-05-28 19:18:00,75.7,83.5,30.06,SE,135,7.2,10.5,82,0.00,,,0.00,,2013-05-28 23:18:00,
2013-05-28 19:23:00,75.6,83.6,30.06,ESE,112,11.0,12.1,82,0.00,,,0.00,,2013-05-28 23:23:00,
2013-05-28 19:28:00,75.6,83.5,30.06,ESE,112,6.3,9.2,82,0.00,,,0.00,,2013-05-28 23:28:00,
2013-05-28 19:33:00,75.6,83.8,30.06,East,90,11.6,11.6,82,0.00,,,0.00,,2013-05-28 23:33:00,
2013-05-28 19:38:00,75.5,84.0,30.06,ESE,112,9.8,10.3,82,0.00,,,0.00,,2013-05-28 23:38:00,
2013-05-28 19:43:00,75.7,83.4,30.06,ESE,112,10.7,10.7,82,0.00,,,0.00,,2013-05-28 23:43:00,
2013-05-28 19:48:00,75.6,83.4,30.07,East,90,4.5,8.5,82,0.00,,,0.00,,2013-05-28 23:48:00,
2013-05-28 19:53:00,75.7,83.8,30.07,NE,45,3.6,3.6,82,0.00,,,0.00,,2013-05-28 23:53:00,
2013-05-28 19:58:00,75.7,83.9,30.07,NE,45,4.3,11.0,82,0.00,,,0.00,,2013-05-28 23:58:00,
2013-05-28 20:03:00,75.8,83.9,30.07,East,90,4.7,6.9,82,0.00,,,0.00,,2013-05-29 00:03:00,
2013-05-28 20:08:00,75.6,83.8,30.07,East,90,5.4,7.2,82,0.00,,,0.00,,2013-05-29 00:08:00,
2013-05-28 20:13:00,75.7,83.7,30.07,East,90,4.9,8.3,82,0.00,,,0.00,,2013-05-29 00:13:00,
2013-05-28 20:18:00,75.7,83.8,30.07,East,90,4.3,6.9,83,0.00,,,0.00,,2013-05-29 00:18:00,
2013-05-28 20:23:00,75.7,83.7,30.07,East,90,3.1,9.4,83,0.00,,,0.00,,2013-05-29 00:23:00,
2013-05-28 20:28:00,75.7,83.6,30.07,ESE,112,8.3,11.6,83,0.00,,,0.00,,2013-05-29 00:28:00,
2013-05-28 20:33:00,75.8,83.7,30.07,SE,135,11.9,13.4,84,0.00,,,0.00,,2013-05-29 00:33:00,
2013-05-28 20:38:00,75.6,83.5,30.07,SE,135,6.9,8.3,85,0.00,,,0.00,,2013-05-29 00:38:00,
2013-05-28 20:43:00,75.5,83.5,30.07,East,90,8.3,12.5,85,0.00,,,0.00,,2013-05-29 00:43:00,
2013-05-28 20:48:00,75.4,83.6,30.07,ESE,112,11.4,11.4,84,0.00,,,0.00,,2013-05-29 00:48:00,
2013-05-28 20:53:00,75.5,83.6,30.07,East,90,6.3,13.9,84,0.00,,,0.00,,2013-05-29 00:53:00,
2013-05-28 20:58:00,75.5,83.6,30.07,East,90,4.7,5.8,84,0.00,,,0.00,,2013-05-29 00:58:00,
2013-05-28 21:03:00,75.4,83.7,30.07,ESE,112,9.4,15.2,83,0.00,,,0.00,,2013-05-29 01:03:00,
2013-05-28 21:08:00,75.4,83.5,30.06,East,90,11.9,12.8,82,0.00,,,0.00,,2013-05-29 01:08:00,
2013-05-28 21:13:00,75.5,83.6,30.06,ESE,112,6.5,11.0,82,0.00,,,0.00,,2013-05-29 01:13:00,
2013-05-28 21:18:00,75.6,83.5,30.06,ESE,112,15.2,15.2,82,0.00,,,0.00,,2013-05-29 01:18:00,
2013-05-28 21:23:00,75.6,83.4,30.06,ESE,112,10.1,13.0,82,0.00,,,0.00,,2013-05-29 01:23:00,
2013-05-28 21:28:00,75.6,83.5,30.05,SE,135,8.1,8.7,82,0.00,,,0.00,,2013-05-29 01:28:00,
2013-05-28 21:33:00,75.7,83.4,30.05,SE,135,8.9,14.5,82,0.00,,,0.00,,2013-05-29 01:33:00,
2013-05-28 21:38:00,75.7,83.5,30.05,East,90,11.9,12.3,82,0.00,,,0.00,,2013-05-29 01:38:00,
2013-05-28 21:43:00,75.7,83.5,30.05,East,90,6.9,9.2,82,0.00,,,0.00,,2013-05-29 01:43:00,
2013-05-28 21:48:00,75.8,83.4,30.06,ESE,112,7.6,7.6,82,0.00,,,0.00,,2013-05-29 01:48:00,
2013-05-28 21:53:00,75.8,83.6,30.06,SE,135,14.3,15.9,82,0.00,,,0.00,,2013-05-29 01:53:00,
2013-05-28 21:58:00,75.8,83.6,30.06,ESE,112,13.9,17.2,82,0.00,,,0.00,,2013-05-29 01:58:00,
2013-05-28 22:03:00,75.9,83.3,30.06,ESE,112,11.6,15.4,82,0.00,,,0.00,,2013-05-29 02:03:00,
2013-05-28 22:08:00,75.9,83.4,30.06,ESE,112,4.7,17.0,82,0.00,,,0.00,,2013-05-29 02:08:00,
2013-05-28 22:13:00,76.0,83.4,30.06,SSE,157,16.1,17.7,80,0.00,,,0.00,,2013-05-29 02:13:00,
2013-05-28 22:18:00,76.1,83.5,30.06,SE,135,11.6,13.6,80,0.00,,,0.00,,2013-05-29 02:18:00,
2013-05-28 22:23:00,76.0,83.5,30.06,ESE,112,9.8,13.6,80,0.00,,,0.00,,2013-05-29 02:23:00,
2013-05-28 22:28:00,76.0,83.3,30.06,SE,135,8.5,14.8,80,0.00,,,0.00,,2013-05-29 02:28:00,
2013-05-28 22:33:00,76.0,83.5,30.06,ESE,112,7.6,11.2,80,0.00,,,0.00,,2013-05-29 02:33:00,
2013-05-28 22:38:00,76.0,83.3,30.06,ESE,112,11.2,13.2,80,0.00,,,0.00,,2013-05-29 02:38:00,
2013-05-28 22:43:00,76.0,83.4,30.06,ESE,112,8.7,11.9,79,0.00,,,0.00,,2013-05-29 02:43:00,
2013-05-28 22:48:00,76.0,83.3,30.06,ESE,112,14.8,21.3,79,0.00,,,0.00,,2013-05-29 02:48:00,
2013-05-28 22:53:00,76.1,83.4,30.06,ESE,112,10.3,13.0,79,0.00,,,0.00,,2013-05-29 02:53:00,
2013-05-28 22:58:00,76.1,83.3,30.07,ESE,112,14.3,14.3,80,0.00,,,0.00,,2013-05-29 02:58:00,
2013-05-28 23:03:00,76.1,83.3,30.07,ESE,112,8.9,10.3,80,0.00,,,0.00,,2013-05-29 03:03:00,
2013-05-28 23:08:00,76.3,83.3,30.07,East,90,7.8,13.4,80,0.00,,,0.00,,2013-05-29 03:08:00,
2013-05-28 23:13:00,76.3,83.3,30.07,East,90,8.5,8.5,80,0.00,,,0.00,,2013-05-29 03:13:00,
2013-05-28 23:18:00,76.2,83.4,30.07,East,90,15.9,16.6,79,0.00,,,0.00,,2013-05-29 03:18:00,
2013-05-28 23:23:00,76.3,83.4,30.08,East,90,13.0,14.5,79,0.00,,,0.00,,2013-05-29 03:23:00,
2013-05-28 23:28:00,76.4,83.2,30.08,East,90,9.4,15.7,79,0.00,,,0.00,,2013-05-29 03:28:00,
2013-05-28 23:33:00,76.3,83.2,30.08,ESE,112,10.3,17.2,79,0.00,,,0.00,,2013-05-29 03:33:00,
2013-05-28 23:38:00,76.3,83.4,30.08,East,90,10.1,13.9,78,0.00,,,0.00,,2013-05-29 03:38:00,
2013-05-28 23:43:00,76.3,83.3,30.08,SE,135,15.9,19.2,78,0.00,,,0.00,,2013-05-29 03:43:00,
2013-05-28 23:48:00,76.4,83.2,30.08,ESE,112,6.5,12.1,79,0.00,,,0.00,,2013-05-29 03:48:00,
2013-05-28 23:53:00,76.5,83.3,30.07,ESE,112,10.7,15.7,79,0.00,,,0.00,,2013-05-29 03:53:00,
2013-05-28 23:58:00,76.4,83.2,30.07,ESE,112,17.2,21.0,79,0.00,,,0.00,,2013-05-29 03:58:00,